Map

Track Data

SID SEASON NUMBER BASIN SUBBASIN NAME ISO_TIME NATURE LAT LON WMO_WIND WMO_PRES WMO_AGENCY TRACK_TYPE DIST2LAND LANDFALL IFLAG USA_AGENCY USA_ATCF_ID USA_LAT USA_LON USA_RECORD USA_STATUS USA_WIND USA_PRES USA_SSHS USA_R34_NE USA_R34_SE USA_R34_SW USA_R34_NW USA_R50_NE USA_R50_SE USA_R50_SW USA_R50_NW USA_R64_NE USA_R64_SE USA_R64_SW USA_R64_NW USA_POCI USA_ROCI USA_RMW USA_EYE TOKYO_LAT TOKYO_LON TOKYO_GRADE TOKYO_WIND TOKYO_PRES TOKYO_R50_DIR TOKYO_R50_LONG TOKYO_R50_SHORT TOKYO_R30_DIR TOKYO_R30_LONG TOKYO_R30_SHORT TOKYO_LAND CMA_LAT CMA_LON CMA_CAT CMA_WIND CMA_PRES HKO_LAT HKO_LON HKO_CAT HKO_WIND HKO_PRES NEWDELHI_LAT NEWDELHI_LON NEWDELHI_GRADE NEWDELHI_WIND NEWDELHI_PRES NEWDELHI_CI NEWDELHI_DP NEWDELHI_POCI REUNION_LAT REUNION_LON REUNION_TYPE REUNION_WIND REUNION_PRES REUNION_TNUM REUNION_CI REUNION_RMW REUNION_R34_NE REUNION_R34_SE REUNION_R34_SW REUNION_R34_NW REUNION_R50_NE REUNION_R50_SE REUNION_R50_SW REUNION_R50_NW REUNION_R64_NE REUNION_R64_SE REUNION_R64_SW REUNION_R64_NW BOM_LAT BOM_LON BOM_TYPE BOM_WIND BOM_PRES BOM_TNUM BOM_CI BOM_RMW BOM_R34_NE BOM_R34_SE BOM_R34_SW BOM_R34_NW BOM_R50_NE BOM_R50_SE BOM_R50_SW BOM_R50_NW BOM_R64_NE BOM_R64_SE BOM_R64_SW BOM_R64_NW BOM_ROCI BOM_POCI BOM_EYE BOM_POS_METHOD BOM_PRES_METHOD NADI_LAT NADI_LON NADI_CAT NADI_WIND NADI_PRES WELLINGTON_LAT WELLINGTON_LON WELLINGTON_WIND WELLINGTON_PRES DS824_LAT DS824_LON DS824_STAGE DS824_WIND DS824_PRES TD9636_LAT TD9636_LON TD9636_STAGE TD9636_WIND TD9636_PRES TD9635_LAT TD9635_LON TD9635_WIND TD9635_PRES TD9635_ROCI NEUMANN_LAT NEUMANN_LON NEUMANN_CLASS NEUMANN_WIND NEUMANN_PRES MLC_LAT MLC_LON MLC_CLASS MLC_WIND MLC_PRES USA_GUST BOM_GUST BOM_GUST_PER REUNION_GUST REUNION_GUST_PER USA_SEAHGT USA_SEARAD_NE USA_SEARAD_SE USA_SEARAD_SW USA_SEARAD_NW STORM_SPEED STORM_DIR
1913243N12141 1913 44 WP MM NOT_NAMED 1913-08-31 10:00:00 NR 11.8000 140.700 main 1508 1504 __________O___ -1 11.8000 140.700 7 9 301
1913243N12141 1913 44 WP MM NOT_NAMED 1913-08-31 12:00:00 NR 11.9476 140.452 main 1511 1514 __________P___ -1 11.9476 140.452 7 9 301
1913243N12141 1913 44 WP MM NOT_NAMED 1913-08-31 15:00:00 NR 12.1635 140.073 main 1528 1515 __________P___ -1 12.1635 140.073 7 9 299
1913243N12141 1913 44 WP MM NOT_NAMED 1913-08-31 18:00:00 NR 12.3656 139.676 main 1518 1478 __________P___ -1 12.3656 139.676 7 9 295
1913243N12141 1913 44 WP MM NOT_NAMED 1913-08-31 21:00:00 NR 12.5461 139.250 main 1478 1459 __________P___ -1 12.5461 139.250 7 9 293
1913243N12141 1913 44 WP MM NOT_NAMED 1913-08-31 22:00:00 NR 12.6000 139.100 main 1459 1428 __________O___ -1 12.6000 139.100 7 10 288
1913243N12141 1913 44 WP MM NOT_NAMED 1913-09-01 00:00:00 NR 12.6977 138.786 main 1428 1375 __________P___ -1 12.6977 138.786 7 10 286
1913243N12141 1913 44 WP MM NOT_NAMED 1913-09-01 03:00:00 NR 12.8254 138.284 main 1375 1323 __________P___ -1 12.8254 138.284 7 10 284
1913243N12141 1913 44 WP MM NOT_NAMED 1913-09-01 06:00:00 NR 12.9414 137.750 main 1323 1262 __________P___ -1 12.9414 137.750 7 11 282
1913243N12141 1913 44 WP MM NOT_NAMED 1913-09-01 09:00:00 NR 13.0585 137.191 main 1262 1241 __________P___ -1 13.0585 137.191 7 11 282
1913243N12141 1913 44 WP MM NOT_NAMED 1913-09-01 10:00:00 NR 13.1000 137.000 main 1241 1200 __________O___ -1 13.1000 137.000 7 11 283
1913243N12141 1913 44 WP MM NOT_NAMED 1913-09-01 12:00:00 NR 13.1862 136.622 main 1200 1138 __________P___ -1 13.1862 136.622 7 12 283
1913243N12141 1913 44 WP MM NOT_NAMED 1913-09-01 15:00:00 NR 13.3217 136.037 main 1138 1080 __________P___ -1 13.3217 136.037 7 12 284
1913243N12141 1913 44 WP MM NOT_NAMED 1913-09-01 18:00:00 NR 13.4704 135.431 main 1080 1020 __________P___ -1 13.4704 135.431 7 12 285
1913243N12141 1913 44 WP MM NOT_NAMED 1913-09-01 21:00:00 NR 13.6385 134.810 main 1020 1000 __________P___ -1 13.6385 134.810 7 13 286
1913243N12141 1913 44 WP MM NOT_NAMED 1913-09-01 22:00:00 NR 13.7000 134.600 main 1000 959 __________O___ -1 13.7000 134.600 3 13 288
1913243N12141 1913 44 WP MM NOT_NAMED 1913-09-02 00:00:00 NR 13.8324 134.188 main 959 900 __________P___ -1 13.8324 134.188 3 13 289
1913243N12141 1913 44 WP MM NOT_NAMED 1913-09-02 03:00:00 NR 14.0502 133.559 main 902 835 __________P___ -1 14.0502 133.559 3 13 290
1913243N12141 1913 44 WP MM NOT_NAMED 1913-09-02 06:00:00 NR 14.2828 132.909 main 835 769 __________P___ -1 14.2828 132.909 3 14 290
1913243N12141 1913 44 WP MM NOT_NAMED 1913-09-02 09:00:00 NR 14.5210 132.232 main 769 752 __________P___ -1 14.5210 132.232 3 14 290
1913243N12141 1913 44 WP MM NOT_NAMED 1913-09-02 10:00:00 NR 14.6000 132.000 main 752 706 __________O___ -1 14.6000 132.000 4 15 288
1913243N12141 1913 44 WP MM NOT_NAMED 1913-09-02 12:00:00 NR 14.7554 131.505 main 711 643 __________P___ -1 14.7554 131.505 4 15 288
1913243N12141 1913 44 WP MM NOT_NAMED 1913-09-02 15:00:00 NR 14.9887 130.736 main 643 591 __________P___ -1 14.9887 130.736 4 16 287
1913243N12141 1913 44 WP MM NOT_NAMED 1913-09-02 18:00:00 NR 15.2163 129.967 main 591 536 __________P___ -1 15.2163 129.967 4 15 287
1913243N12141 1913 44 WP MM NOT_NAMED 1913-09-02 21:00:00 NR 15.4318 129.231 main 536 526 __________P___ -1 15.4318 129.231 4 15 287
1913243N12141 1913 44 WP MM NOT_NAMED 1913-09-02 22:00:00 NR 15.5000 129.000 main 526 490 __________O___ -1 15.5000 129.000 4 13 287
1913243N12141 1913 44 WP MM NOT_NAMED 1913-09-03 00:00:00 NR 15.6298 128.576 main 490 441 __________P___ -1 15.6298 128.576 4 12 288
1913243N12141 1913 44 WP MM NOT_NAMED 1913-09-03 03:00:00 NR 15.8127 127.985 main 441 399 __________P___ -1 15.8127 127.985 4 12 288
1913243N12141 1913 44 WP MM NOT_NAMED 1913-09-03 06:00:00 NR 15.9841 127.428 main 399 364 __________P___ -1 15.9841 127.428 4 11 288
1913243N12141 1913 44 WP MM NOT_NAMED 1913-09-03 09:00:00 NR 16.1471 126.883 main 364 356 __________P___ -1 16.1471 126.883 4 11 287
1913243N12141 1913 44 WP MM NOT_NAMED 1913-09-03 10:00:00 NR 16.2000 126.700 main 356 335 __________O___ -1 16.2000 126.700 4 12 285
1913243N12141 1913 44 WP MM NOT_NAMED 1913-09-03 12:00:00 NR 16.2951 126.303 main 335 307 __________P___ -1 16.2951 126.303 4 12 284
1913243N12141 1913 44 WP MM NOT_NAMED 1913-09-03 15:00:00 NR 16.4314 125.708 main 307 278 __________P___ -1 16.4314 125.708 4 12 284
1913243N12141 1913 44 WP MM NOT_NAMED 1913-09-03 18:00:00 NR 16.5738 125.127 main 278 224 __________P___ -1 16.5738 125.127 4 11 286
1913243N12141 1913 44 WP MM NOT_NAMED 1913-09-03 21:00:00 NR 16.7378 124.575 main 224 202 __________P___ -1 16.7378 124.575 4 11 288
1913243N12141 1913 44 WP MM NOT_NAMED 1913-09-03 22:00:00 NR 16.8000 124.400 main 202 170 __________O___ -1 16.8000 124.400 4 11 292
1913243N12141 1913 44 WP MM NOT_NAMED 1913-09-04 00:00:00 NR 16.9381 124.066 main 170 117 __________P___ -1 16.9381 124.066 4 10 296
1913243N12141 1913 44 WP MM NOT_NAMED 1913-09-04 03:00:00 NR 17.1708 123.597 main 119 85 __________P___ -1 17.1708 123.597 4 10 299
1913243N12141 1913 44 WP MM NOT_NAMED 1913-09-04 06:00:00 NR 17.4285 123.157 main 85 54 __________P___ -1 17.4285 123.157 4 10 303
1913243N12141 1913 44 WP MM NOT_NAMED 1913-09-04 09:00:00 NR 17.7049 122.737 main 54 52 __________P___ -1 17.7049 122.737 4 10 305
1913243N12141 1913 44 WP MM NOT_NAMED 1913-09-04 10:00:00 NR 17.8000 122.600 main 52 15 __________O___ -1 17.8000 122.600 4 10 306
1913243N12141 1913 44 WP MM NOT_NAMED 1913-09-04 12:00:00 NR 17.9963 122.309 main 15 0 __________P___ -1 17.9963 122.309 4 10 307
1913243N12141 1913 44 WP MM NOT_NAMED 1913-09-04 15:00:00 NR 18.3038 121.885 main 0 0 __________P___ -1 18.3038 121.885 4 10 308
1913243N12141 1913 44 WP MM NOT_NAMED 1913-09-04 18:00:00 NR 18.6128 121.483 main 15 11 __________P___ -1 18.6128 121.483 4 10 310
1913243N12141 1913 44 WP MM NOT_NAMED 1913-09-04 21:00:00 NR 18.9076 121.114 main 39 39 __________P___ -1 18.9076 121.114 4 9 310
1913243N12141 1913 44 WP MM NOT_NAMED 1913-09-04 22:00:00 NR 19.0000 121.000 main 45 44 __________O___ -1 19.0000 121.000 4 8 310
1913243N12141 1913 44 WP MM NOT_NAMED 1913-09-05 00:00:00 NR 19.1562 120.795 main 67 67 __________P___ -1 19.1562 120.795 4 7 309
1913243N12141 1913 44 WP MM NOT_NAMED 1913-09-05 03:00:00 NR 19.3717 120.520 main 94 94 __________P___ -1 19.3717 120.520 4 7 310
1913243N12141 1913 44 WP MM NOT_NAMED 1913-09-05 06:00:00 NR 19.5840 120.262 main 123 128 __________P___ -1 19.5840 120.262 4 7 312
1913243N12141 1913 44 WP MM NOT_NAMED 1913-09-05 09:00:00 NR 19.8151 119.995 main 158 158 __________P___ -1 19.8151 119.995 4 7 313
1913243N12141 1913 44 WP MM NOT_NAMED 1913-09-05 10:00:00 NR 19.9000 119.900 main 173 173 __________O___ -1 19.9000 119.900 4 8 314
1913243N12141 1913 44 WP MM NOT_NAMED 1913-09-05 12:00:00 NR 20.1018 119.676 main 203 203 __________P___ -1 20.1018 119.676 4 9 314
1913243N12141 1913 44 WP MM NOT_NAMED 1913-09-05 15:00:00 NR 20.4299 119.321 main 221 212 __________P___ -1 20.4299 119.321 4 9 315
1913243N12141 1913 44 WP MM NOT_NAMED 1913-09-05 18:00:00 NR 20.7688 118.960 main 214 217 __________P___ -1 20.7688 118.960 4 9 315
1913243N12141 1913 44 WP MM NOT_NAMED 1913-09-05 21:00:00 NR 21.0969 118.610 main 234 234 __________P___ -1 21.0969 118.610 4 9 315
1913243N12141 1913 44 WP MM NOT_NAMED 1913-09-05 22:00:00 NR 21.2000 118.500 main 235 235 __________O___ -1 21.2000 118.500 4 8 313
1913243N12141 1913 44 WP MM NOT_NAMED 1913-09-06 00:00:00 NR 21.3757 118.296 main 240 211 __________P___ -1 21.3757 118.296 4 7 313
1913243N12141 1913 44 WP MM NOT_NAMED 1913-09-06 03:00:00 NR 21.6203 118.010 main 211 166 __________P___ -1 21.6203 118.010 4 7 313
1913243N12141 1913 44 WP MM NOT_NAMED 1913-09-06 06:00:00 NR 21.8590 117.742 main 166 136 __________P___ -1 21.8590 117.742 4 7 315
1913243N12141 1913 44 WP MM NOT_NAMED 1913-09-06 09:00:00 NR 22.1102 117.484 main 136 121 __________P___ -1 22.1102 117.484 4 7 317
1913243N12141 1913 44 WP MM NOT_NAMED 1913-09-06 10:00:00 NR 22.2000 117.400 main 121 90 __________O___ -1 22.2000 117.400 4 7 320
1913243N12141 1913 44 WP MM NOT_NAMED 1913-09-06 12:00:00 NR 22.3914 117.232 main 90 55 __________P___ -1 22.3914 117.232 4 8 323
1913243N12141 1913 44 WP MM NOT_NAMED 1913-09-06 15:00:00 NR 22.7035 116.982 main 55 20 __________P___ -1 22.7035 116.982 4 8 324
1913243N12141 1913 44 WP MM NOT_NAMED 1913-09-06 18:00:00 NR 23.0374 116.733 main 20 0 __________P___ -1 23.0374 116.733 4 8 326
1913243N12141 1913 44 WP MM NOT_NAMED 1913-09-06 21:00:00 NR 23.3836 116.483 main 0 0 __________P___ -1 23.3836 116.483 4 8 326
1913243N12141 1913 44 WP MM NOT_NAMED 1913-09-06 22:00:00 NR 23.5000 116.400 main 0 __________O___ -1 23.5000 116.400 2 8 325

Digital Typhoon Data and Search

About IBTrACS Database

This database is a web-friendly format of International Best Track Archive for Climate Stewardship (IBTrACS), a global best track data archive curated by NOAA dating back to 1842.

Updated: 2021-10-21